createdAt,value
2023-05-10T04:49:13.090Z,101714.55
2023-05-10T04:51:41.868Z,101715.66
2023-05-10T04:54:10.703Z,101715.70
2023-05-10T04:56:39.456Z,101720.64
2023-05-10T04:59:08.348Z,101716.98
2023-05-10T05:01:37.082Z,101718.08
2023-05-10T05:04:06.327Z,101716.11
2023-05-10T05:06:35.114Z,101715.30
2023-05-10T05:09:04.427Z,101714.52
2023-05-10T05:11:33.258Z,101714.38
2023-05-10T05:14:02.219Z,101712.48
2023-05-10T05:16:33.290Z,101709.91
2023-05-10T05:19:02.549Z,101709.97
2023-05-10T05:21:31.437Z,101712.59
2023-05-10T05:24:00.333Z,101707.97
2023-05-10T05:26:29.320Z,101713.00
2023-05-10T05:28:58.222Z,101710.59
2023-05-10T05:31:27.370Z,101708.36
2023-05-10T05:33:56.776Z,101710.27
2023-05-10T05:36:26.015Z,101712.19
2023-05-10T05:38:54.924Z,101709.89
2023-05-10T05:41:25.238Z,101712.91
2023-05-10T05:43:54.233Z,101715.79
2023-05-10T05:46:23.088Z,101710.29
2023-05-10T05:48:52.017Z,101712.70
2023-05-10T05:51:21.412Z,101715.45
2023-05-10T05:53:50.210Z,101716.06
2023-05-10T05:56:25.350Z,101712.66
2023-05-10T05:58:54.547Z,101715.45
2023-05-10T06:01:23.330Z,101717.14
2023-05-10T06:03:53.502Z,101717.52
2023-05-10T06:06:22.461Z,101716.17
2023-05-10T06:08:51.338Z,101717.33
2023-05-10T06:11:20.142Z,101716.95
2023-05-10T06:13:49.323Z,101714.36
2023-05-10T06:16:19.078Z,101712.27
2023-05-10T06:18:47.928Z,101706.41
2023-05-10T06:21:17.532Z,101709.95
2023-05-10T06:23:46.525Z,101709.95
2023-05-10T06:26:15.246Z,101706.09
2023-05-10T06:28:44.049Z,101700.65
2023-05-10T06:31:13.734Z,101700.30
2023-05-10T06:33:42.813Z,101699.92
2023-05-10T06:36:11.801Z,101698.85
2023-05-10T06:38:40.831Z,101695.82
2023-05-10T06:41:09.696Z,101695.61
2023-05-10T06:43:41.247Z,101691.00
2023-05-10T06:46:10.485Z,101693.20
2023-05-10T06:48:39.363Z,101694.61
2023-05-10T06:51:08.229Z,101691.77
2023-05-10T06:53:37.163Z,101693.77
2023-05-10T06:56:06.194Z,101689.70
2023-05-10T06:58:34.979Z,101687.55
2023-05-10T07:01:05.593Z,101689.63
2023-05-10T07:03:34.435Z,101686.09
2023-05-10T07:06:05.458Z,101686.29
2023-05-10T07:08:35.443Z,101690.99
2023-05-10T07:11:06.445Z,101690.64
2023-05-10T07:13:36.017Z,101694.35
2023-05-10T07:16:07.549Z,101692.29
2023-05-10T07:18:36.393Z,101694.57
2023-05-10T07:21:05.307Z,101694.12
2023-05-10T07:23:34.259Z,101690.20
2023-05-10T07:26:03.476Z,101691.39
2023-05-10T07:28:32.256Z,101687.63
2023-05-10T07:31:01.051Z,101687.61
2023-05-10T07:33:29.825Z,101688.27
2023-05-10T07:35:58.990Z,101689.85
2023-05-10T07:38:27.726Z,101690.58
2023-05-10T07:40:56.446Z,101688.60
2023-05-10T07:43:25.172Z,101684.08
2023-05-10T07:45:56.094Z,101685.32
2023-05-10T07:48:25.145Z,101684.17
2023-05-10T07:50:53.854Z,101682.28
2023-05-10T07:53:22.553Z,101677.95
2023-05-10T07:55:59.417Z,101678.13
2023-05-10T07:58:28.207Z,101679.39
2023-05-10T08:00:57.727Z,101681.02
2023-05-10T08:03:26.466Z,101679.13
2023-05-10T08:05:55.129Z,101679.16
2023-05-10T08:08:25.435Z,101683.68
2023-05-10T08:10:54.150Z,101682.58
2023-05-10T08:13:22.966Z,101678.98
2023-05-10T08:15:54.247Z,101677.35
2023-05-10T08:18:23.221Z,101683.13
2023-05-10T08:20:51.946Z,101680.11
2023-05-10T08:23:20.714Z,101675.27
2023-05-10T08:25:49.521Z,101681.36
2023-05-10T08:28:18.210Z,101676.80
2023-05-10T08:30:46.894Z,101675.45
2023-05-10T08:33:15.619Z,101676.69
2023-05-10T08:35:44.269Z,101675.00
2023-05-10T08:38:14.167Z,101674.64
2023-05-10T08:40:44.447Z,101673.58
2023-05-10T08:43:17.739Z,101672.77
2023-05-10T08:45:48.222Z,101674.38
2023-05-10T08:48:18.544Z,101670.71
2023-05-10T08:50:49.870Z,101666.48
2023-05-10T08:53:20.341Z,101665.48
2023-05-10T08:55:49.972Z,101669.97
2023-05-10T08:58:20.745Z,101670.23
2023-05-10T09:00:52.753Z,101668.55
2023-05-10T09:03:21.945Z,101665.30
2023-05-10T09:05:54.267Z,101657.95
2023-05-10T09:08:27.045Z,101660.63
2023-05-10T09:10:56.229Z,101661.24
2023-05-10T09:13:27.144Z,101663.76
2023-05-10T09:15:56.390Z,101664.74
2023-05-10T09:18:27.940Z,101666.31
2023-05-10T09:20:57.031Z,101670.48
2023-05-10T09:23:32.715Z,101672.32
2023-05-10T09:26:08.961Z,101667.81
2023-05-10T09:28:58.326Z,101663.73
2023-05-10T09:31:52.933Z,101660.39
2023-05-10T09:34:35.942Z,101664.56
2023-05-10T09:37:07.481Z,101661.59
2023-05-10T09:39:39.102Z,101658.19
2023-05-10T09:42:11.813Z,101653.14
2023-05-10T09:44:42.246Z,101647.89
2023-05-10T09:47:11.053Z,101648.42
2023-05-10T09:49:39.926Z,101650.61
2023-05-10T09:52:09.763Z,101642.48
2023-05-10T09:54:38.524Z,101649.48
2023-05-10T09:57:19.870Z,101652.06
2023-05-10T09:59:49.272Z,101650.44
2023-05-10T10:02:18.557Z,101652.41
2023-05-10T10:04:50.785Z,101649.34
2023-05-10T10:07:26.072Z,101650.80
2023-05-10T10:09:55.137Z,101651.01
2023-05-10T10:12:24.112Z,101648.17
2023-05-10T10:14:53.635Z,101652.23
2023-05-10T10:17:23.211Z,101649.28
2023-05-10T10:19:52.435Z,101647.16
2023-05-10T10:22:21.422Z,101645.25
2023-05-10T10:24:51.953Z,101644.08
2023-05-10T10:27:25.037Z,101643.02
2023-05-10T10:30:11.337Z,101643.19
2023-05-10T10:33:13.224Z,101648.56
2023-05-10T10:35:48.086Z,101647.83
2023-05-10T10:38:17.847Z,101650.59
2023-05-10T10:40:46.629Z,101649.84
2023-05-10T10:43:29.653Z,101646.56
2023-05-10T10:46:18.884Z,101643.82
2023-05-10T10:49:12.593Z,101643.88
2023-05-10T10:51:42.109Z,101640.04
2023-05-10T10:54:13.987Z,101632.86
2023-05-10T10:56:45.927Z,101630.52
2023-05-10T10:59:28.440Z,101628.31
2023-05-10T11:01:57.157Z,101631.67
2023-05-10T11:04:26.056Z,101629.73
2023-05-10T11:07:18.703Z,101630.78
2023-05-10T11:09:49.094Z,101630.27
2023-05-10T11:12:17.887Z,101629.08
2023-05-10T11:14:52.636Z,101628.02
2023-05-10T11:17:39.754Z,101627.28
2023-05-10T11:20:15.670Z,101627.76
2023-05-10T11:22:55.635Z,101629.28
2023-05-10T11:25:30.810Z,101628.36
2023-05-10T11:28:04.173Z,101627.44
2023-05-10T11:30:33.117Z,101624.43
2023-05-10T11:33:02.117Z,101626.55
2023-05-10T11:35:31.168Z,101624.84
2023-05-10T11:38:00.047Z,101626.02
2023-05-10T11:40:28.943Z,101625.13
2023-05-10T11:42:58.049Z,101627.14
2023-05-10T11:45:27.460Z,101623.35
2023-05-10T11:47:58.823Z,101629.42
2023-05-10T11:50:28.830Z,101627.06
2023-05-10T11:52:59.882Z,101626.64
2023-05-10T11:55:28.758Z,101624.85
2023-05-10T11:58:02.804Z,101626.93
2023-05-10T12:00:33.018Z,101628.86
2023-05-10T12:03:03.513Z,101627.63
2023-05-10T12:05:35.309Z,101627.33
2023-05-10T12:08:16.786Z,101623.19
2023-05-10T12:10:45.569Z,101626.56
2023-05-10T12:13:16.418Z,101629.02
2023-05-10T12:15:45.889Z,101625.09
2023-05-10T12:18:16.484Z,101617.11
2023-05-10T12:20:45.380Z,101618.58
2023-05-10T12:23:15.378Z,101616.66
2023-05-10T12:25:44.430Z,101613.41
2023-05-10T12:28:13.579Z,101611.98
2023-05-10T12:30:42.484Z,101611.96
2023-05-10T12:33:18.267Z,101614.02
2023-05-10T12:35:54.392Z,101610.27
2023-05-10T12:38:39.270Z,101609.35
2023-05-10T12:41:19.498Z,101608.31
2023-05-10T12:43:49.272Z,101601.25
2023-05-10T12:46:18.936Z,101604.66
2023-05-10T12:48:57.545Z,101600.76
2023-05-10T12:51:32.342Z,101599.27
2023-05-10T12:54:01.222Z,101594.98
2023-05-10T12:56:30.036Z,101589.96
2023-05-10T12:58:58.774Z,101588.80
2023-05-10T13:01:27.743Z,101584.09
2023-05-10T13:03:56.489Z,101582.58
2023-05-10T13:06:25.291Z,101579.11
2023-05-10T13:08:54.192Z,101576.22
2023-05-10T13:11:23.032Z,101575.86
2023-05-10T13:13:52.577Z,101574.90
2023-05-10T13:16:21.528Z,101570.56
2023-05-10T13:18:50.391Z,101572.32
2023-05-10T13:21:19.153Z,101568.23
2023-05-10T13:23:48.051Z,101567.19
2023-05-10T13:26:16.956Z,101563.33
2023-05-10T13:28:47.151Z,101563.33
2023-05-10T13:31:16.090Z,101561.13
2023-05-10T13:33:44.916Z,101557.41
2023-05-10T13:36:13.664Z,101557.84
2023-05-10T13:38:42.602Z,101557.67
2023-05-10T13:41:11.975Z,101555.98
2023-05-10T13:43:40.907Z,101557.36
2023-05-10T13:46:09.731Z,101556.98
2023-05-10T13:48:39.219Z,101555.05
2023-05-10T13:51:08.189Z,101557.52
2023-05-10T13:53:37.708Z,101558.06
2023-05-10T13:56:06.815Z,101556.48
2023-05-10T13:58:36.945Z,101548.11
2023-05-10T14:01:06.058Z,101550.83
2023-05-10T14:03:35.071Z,101551.88
2023-05-10T14:06:04.022Z,101547.81
2023-05-10T14:08:32.791Z,101547.90
2023-05-10T14:11:01.712Z,101550.19
2023-05-10T14:13:30.509Z,101548.46
2023-05-10T14:16:01.827Z,101547.95
2023-05-10T14:18:30.897Z,101546.41
2023-05-10T14:21:00.006Z,101547.13
2023-05-10T14:23:29.900Z,101540.20
2023-05-10T14:25:58.763Z,101544.16
2023-05-10T14:28:27.564Z,101543.59
2023-05-10T14:30:56.402Z,101538.95
2023-05-10T14:33:25.129Z,101539.75
2023-05-10T14:35:57.653Z,101534.98
2023-05-10T14:38:26.354Z,101534.39
2023-05-10T14:40:55.486Z,101537.11
2023-05-10T14:43:24.560Z,101537.11
2023-05-10T14:45:53.364Z,101540.61
2023-05-10T14:48:22.523Z,101537.86
2023-05-10T14:50:53.947Z,101535.00
2023-05-10T14:53:23.056Z,101535.23
2023-05-10T14:55:51.974Z,101531.20
2023-05-10T14:58:20.799Z,101530.40
2023-05-10T15:00:49.902Z,101531.89
2023-05-10T15:03:19.282Z,101526.13
2023-05-10T15:05:48.503Z,101527.42
2023-05-10T15:08:17.268Z,101528.92
2023-05-10T15:10:45.994Z,101529.58
2023-05-10T15:13:15.051Z,101528.27
2023-05-10T15:15:43.773Z,101525.90
2023-05-10T15:18:12.680Z,101523.21
2023-05-10T15:20:41.457Z,101520.52
2023-05-10T15:23:10.207Z,101518.83
2023-05-10T15:25:38.916Z,101517.52
2023-05-10T15:28:07.687Z,101515.98
2023-05-10T15:30:36.419Z,101514.46
2023-05-10T15:33:05.392Z,101512.15
2023-05-10T15:35:36.893Z,101515.73
2023-05-10T15:38:05.684Z,101519.20
2023-05-10T15:40:34.458Z,101519.20
2023-05-10T15:43:03.324Z,101522.25
2023-05-10T15:45:32.173Z,101518.60
2023-05-10T15:48:01.110Z,101520.31
2023-05-10T15:50:30.092Z,101521.34
2023-05-10T15:52:58.915Z,101522.69
2023-05-10T15:55:27.851Z,101520.27
2023-05-10T15:57:56.680Z,101519.62
2023-05-10T16:00:25.769Z,101520.83
2023-05-10T16:02:54.749Z,101519.69
2023-05-10T16:05:24.419Z,101522.36
2023-05-10T16:07:53.716Z,101518.81
2023-05-10T16:10:22.757Z,101516.41
2023-05-10T16:12:51.946Z,101516.36
2023-05-10T16:15:22.161Z,101518.03
2023-05-10T16:17:51.413Z,101517.30
2023-05-10T16:20:20.671Z,101520.98
2023-05-10T16:22:49.517Z,101517.59
2023-05-10T16:25:18.875Z,101519.02
2023-05-10T16:27:48.252Z,101521.84
2023-05-10T16:30:17.449Z,101520.06
2023-05-10T16:32:46.135Z,101521.96
2023-05-10T16:35:15.191Z,101524.64
2023-05-10T16:37:44.083Z,101526.81
2023-05-10T16:40:13.196Z,101526.21
2023-05-10T16:42:41.837Z,101525.77
2023-05-10T16:45:11.414Z,101527.39
2023-05-10T16:47:41.154Z,101528.04
2023-05-10T16:50:10.532Z,101532.95
2023-05-10T16:52:39.431Z,101533.61
2023-05-10T16:55:08.798Z,101533.10
2023-05-10T16:57:37.584Z,101532.86
2023-05-10T17:00:07.369Z,101533.89
2023-05-10T17:02:36.310Z,101531.52
2023-05-10T17:05:05.865Z,101536.04
2023-05-10T17:07:35.022Z,101536.86
2023-05-10T17:10:04.199Z,101538.64
2023-05-10T17:12:33.027Z,101537.56
2023-05-10T17:15:01.961Z,101539.93
2023-05-10T17:17:30.749Z,101539.57
2023-05-10T17:19:59.621Z,101543.17
2023-05-10T17:22:28.390Z,101543.77
2023-05-10T17:24:57.094Z,101545.83
2023-05-10T17:27:25.854Z,101544.35
2023-05-10T17:29:58.218Z,101546.83
2023-05-10T17:32:27.142Z,101550.52
2023-05-10T17:34:55.901Z,101552.16
2023-05-10T17:37:24.617Z,101551.40
2023-05-10T17:39:53.289Z,101555.26
2023-05-10T17:42:21.995Z,101564.46
2023-05-10T17:44:50.799Z,101563.48
2023-05-10T17:47:19.770Z,101567.23
2023-05-10T17:49:48.481Z,101570.16
2023-05-10T17:52:17.338Z,101574.17
2023-05-10T17:54:46.091Z,101578.15
2023-05-10T17:57:14.845Z,101588.85
2023-05-10T17:59:43.524Z,101594.64
2023-05-10T18:02:12.260Z,101599.77
2023-05-10T18:04:41.502Z,101602.40
2023-05-10T18:07:11.029Z,101604.83
2023-05-10T18:09:39.742Z,101611.95
2023-05-10T18:12:08.429Z,101618.58
2023-05-10T18:14:40.990Z,101622.58
2023-05-10T18:17:10.311Z,101624.86
2023-05-10T18:19:39.750Z,101624.69
2023-05-10T18:22:10.654Z,101624.02
2023-05-10T18:24:41.161Z,101627.09
2023-05-10T18:27:09.948Z,101630.33
2023-05-10T18:29:39.577Z,101634.38
2023-05-10T18:32:08.252Z,101633.34
2023-05-10T18:34:37.204Z,101633.07
2023-05-10T18:37:07.932Z,101634.27
2023-05-10T18:39:39.700Z,101635.41
2023-05-10T18:42:09.292Z,101636.69
2023-05-10T18:44:38.030Z,101640.95
2023-05-10T18:47:06.896Z,101648.48
2023-05-10T18:49:35.569Z,101651.93
2023-05-10T18:52:04.322Z,101651.15
2023-05-10T18:54:32.967Z,101651.10
2023-05-10T18:57:01.752Z,101652.02
2023-05-10T18:59:30.915Z,101655.70
2023-05-10T19:02:00.616Z,101655.45
2023-05-10T19:04:29.611Z,101656.24
2023-05-10T19:06:58.412Z,101654.02
2023-05-10T19:09:27.535Z,101654.59
2023-05-10T19:11:56.825Z,101658.98
2023-05-10T19:14:25.666Z,101660.26
2023-05-10T19:16:54.629Z,101657.71
2023-05-10T19:19:24.748Z,101660.07
2023-05-10T19:21:55.913Z,101660.18
2023-05-10T19:24:25.921Z,101658.45
2023-05-10T19:26:56.527Z,101662.64
2023-05-10T19:29:27.796Z,101667.42
2023-05-10T19:31:56.583Z,101670.08
2023-05-10T19:34:25.330Z,101662.69
2023-05-10T19:36:54.884Z,101668.71
2023-05-10T19:39:23.782Z,101670.05
2023-05-10T19:41:52.452Z,101668.33
2023-05-10T19:44:21.434Z,101668.52
2023-05-10T19:46:50.241Z,101672.14
2023-05-10T19:49:19.117Z,101675.96
2023-05-10T19:51:47.945Z,101678.15
2023-05-10T19:54:17.236Z,101678.23
2023-05-10T19:56:45.989Z,101673.83
2023-05-10T19:59:14.688Z,101672.89
2023-05-10T20:01:43.414Z,101671.67
2023-05-10T20:04:12.940Z,101672.32
2023-05-10T20:06:41.741Z,101671.32
2023-05-10T20:09:10.459Z,101674.05
2023-05-10T20:11:39.257Z,101676.28
2023-05-10T20:14:09.393Z,101672.86
2023-05-10T20:16:39.417Z,101671.86
2023-05-10T20:19:08.232Z,101669.21
2023-05-10T20:21:37.088Z,101671.50
2023-05-10T20:24:07.883Z,101670.14
2023-05-10T20:26:36.578Z,101671.40
2023-05-10T20:29:05.573Z,101671.20
2023-05-10T20:31:34.473Z,101671.20
2023-05-10T20:34:03.221Z,101669.84
2023-05-10T20:36:32.036Z,101670.13
2023-05-10T20:39:00.885Z,101666.52
2023-05-10T20:41:29.540Z,101664.85
2023-05-10T20:43:58.207Z,101665.54
2023-05-10T20:46:30.456Z,101665.83
2023-05-10T20:48:59.726Z,101667.33
2023-05-10T20:51:30.469Z,101666.61
2023-05-10T20:54:01.774Z,101664.67
2023-05-10T20:56:31.469Z,101666.27
2023-05-10T20:59:00.140Z,101665.79
2023-05-10T21:01:28.924Z,101668.62
2023-05-10T21:03:57.947Z,101664.21
2023-05-10T21:06:26.581Z,101666.73
2023-05-10T21:08:55.284Z,101669.81
2023-05-10T21:11:24.079Z,101668.73
2023-05-10T21:13:52.906Z,101670.38
2023-05-10T21:16:21.651Z,101671.19
2023-05-10T21:18:50.398Z,101671.81
2023-05-10T21:21:19.124Z,101676.23
2023-05-10T21:23:47.879Z,101674.79
2023-05-10T21:26:17.247Z,101682.07
2023-05-10T21:28:46.217Z,101688.55
2023-05-10T21:31:14.928Z,101688.45
2023-05-10T21:33:43.817Z,101687.63
2023-05-10T21:36:12.531Z,101695.41
2023-05-10T21:38:42.482Z,101702.02
2023-05-10T21:41:11.301Z,101694.67
2023-05-10T21:43:40.023Z,101690.27
2023-05-10T21:46:09.495Z,101681.49
2023-05-10T21:48:38.355Z,101679.41
2023-05-10T21:51:07.140Z,101677.65
2023-05-10T21:53:39.108Z,101672.27
2023-05-10T21:56:07.837Z,101669.19
2023-05-10T21:58:36.747Z,101674.98
2023-05-10T22:01:05.768Z,101676.02
2023-05-10T22:03:34.484Z,101672.20
2023-05-10T22:06:03.349Z,101672.45
2023-05-10T22:08:32.204Z,101673.08
2023-05-10T22:11:00.953Z,101673.64
2023-05-10T22:13:29.607Z,101678.42
2023-05-10T22:15:58.221Z,101677.20
2023-05-10T22:18:26.912Z,101672.41
2023-05-10T22:20:55.716Z,101671.05
2023-05-10T22:23:24.386Z,101670.40
2023-05-10T22:25:53.132Z,101674.71
2023-05-10T22:28:21.784Z,101675.23
2023-05-10T22:30:50.483Z,101672.19
2023-05-10T22:33:19.315Z,101671.09
2023-05-10T22:35:48.094Z,101673.35
2023-05-10T22:38:16.770Z,101672.92
2023-05-10T22:40:45.669Z,101672.62
2023-05-10T22:43:14.388Z,101674.36
2023-05-10T22:45:43.033Z,101673.94
2023-05-10T22:48:12.100Z,101675.75
2023-05-10T22:50:40.878Z,101678.16
2023-05-10T22:53:09.560Z,101685.42
2023-05-10T22:55:38.421Z,101681.31
2023-05-10T22:58:07.723Z,101679.02
2023-05-10T23:00:36.512Z,101676.98
2023-05-10T23:03:06.863Z,101671.03
2023-05-10T23:05:35.629Z,101669.14
2023-05-10T23:08:04.412Z,101671.56
2023-05-10T23:10:33.285Z,101668.93
2023-05-10T23:13:02.107Z,101665.06
2023-05-10T23:15:33.183Z,101663.03
2023-05-10T23:18:02.731Z,101665.86
2023-05-10T23:20:31.454Z,101666.51
2023-05-10T23:23:00.105Z,101668.73
2023-05-10T23:25:28.760Z,101669.27
2023-05-10T23:27:57.560Z,101671.92
2023-05-10T23:30:26.444Z,101673.66
2023-05-10T23:32:55.188Z,101676.06
2023-05-10T23:35:23.855Z,101672.80
2023-05-10T23:37:52.576Z,101674.21
2023-05-10T23:40:21.308Z,101669.23
2023-05-10T23:42:50.121Z,101673.25
2023-05-10T23:45:18.819Z,101676.95
2023-05-10T23:47:47.524Z,101681.58
2023-05-10T23:50:16.667Z,101679.33
2023-05-10T23:52:45.579Z,101678.33
2023-05-10T23:55:14.382Z,101677.43
2023-05-10T23:57:43.752Z,101679.29
